Time;durP1;ratioP1;P1;durP2;ratioP2;P2;SDS_P1;SDS_P2;PMS_P1;PMS_P2;Temp;Humidity;BMP_temperature;BMP_pressure;BME280_temperature;BME280_humidity;BME280_pressure;Samples;Min_cycle;Max_cycle;Signal;HPM_P1;HPM_P2
2022/08/15 00:01:59;;;;;;;11.93;11.00;;;25.80;84.50;;;;;;5034108;28;20470;-75
2022/08/15 00:04:28;;;;;;;11.43;10.53;;;25.80;84.40;;;;;;5034056;28;20442;-75
2022/08/15 00:07:01;;;;;;;11.17;10.47;;;25.80;84.30;;;;;;5034012;28;20551;-76
2022/08/15 00:09:31;;;;;;;12.63;11.47;;;25.80;84.20;;;;;;5034281;28;20794;-75
2022/08/15 00:12:22;;;;;;;11.40;10.50;;;25.80;84.20;;;;;;5032968;28;20794;-74
2022/08/15 00:15:04;;;;;;;11.43;10.53;;;25.70;84.00;;;;;;5034127;28;20419;-75
2022/08/15 00:17:36;;;;;;;11.83;10.93;;;25.70;83.90;;;;;;5032675;28;20555;-74
2022/08/15 00:20:18;;;;;;;12.40;11.40;;;25.70;83.80;;;;;;5034323;28;20451;-75
2022/08/15 00:22:51;;;;;;;11.33;10.53;;;25.70;83.80;;;;;;5033957;28;20427;-75
2022/08/15 00:25:20;;;;;;;11.77;10.90;;;25.70;83.70;;;;;;5033990;28;20999;-74
2022/08/15 00:27:54;;;;;;;11.43;10.43;;;25.70;83.60;;;;;;5034309;28;20781;-74
2022/08/15 00:30:22;;;;;;;11.33;10.43;;;25.60;83.50;;;;;;5033809;28;20430;-74
2022/08/15 00:32:55;;;;;;;11.27;10.37;;;25.60;83.50;;;;;;5032390;28;20446;-74
2022/08/15 00:35:48;;;;;;;10.37;9.57;;;25.60;83.50;;;;;;5032603;28;20988;-74
2022/08/15 00:38:31;;;;;;;11.80;10.90;;;25.60;83.50;;;;;;5032315;28;20913;-74
2022/08/15 00:44:05;;;;;;;10.70;9.80;;;25.50;83.50;;;;;;5032401;28;20446;-75
2022/08/15 00:46:38;;;;;;;12.57;11.37;;;25.50;83.50;;;;;;5032042;28;20467;-75
2022/08/15 00:49:09;;;;;;;11.20;10.37;;;25.50;83.50;;;;;;5033789;28;20470;-74
2022/08/15 00:51:44;;;;;;;10.60;9.80;;;25.50;83.50;;;;;;5034417;28;20447;-76
2022/08/15 00:54:27;;;;;;;10.37;9.67;;;25.50;83.60;;;;;;5033706;28;20469;-75
2022/08/15 00:57:21;;;;;;;10.97;10.03;;;25.40;83.60;;;;;;5039735;28;20470;-75
2022/08/15 01:00:14;;;;;;;11.07;10.03;;;25.40;83.60;;;;;;5046880;28;20526;-75
2022/08/15 01:03:05;;;;;;;9.97;9.27;;;25.40;83.70;;;;;;5041005;28;20423;-75
2022/08/15 01:05:47;;;;;;;10.60;9.73;;;25.30;84.30;;;;;;5033069;28;20467;-75
2022/08/15 01:08:20;;;;;;;11.13;10.33;;;25.30;83.70;;;;;;5032288;28;20516;-74
2022/08/15 01:11:15;;;;;;;10.30;9.50;;;25.30;83.80;;;;;;5033383;28;20426;-75
2022/08/15 01:13:47;;;;;;;11.83;10.63;;;25.30;83.80;;;;;;5035493;28;20430;-74
2022/08/15 01:16:38;;;;;;;10.60;9.70;;;25.30;84.50;;;;;;5036052;28;20582;-74
2022/08/15 01:19:16;;;;;;;10.57;9.70;;;25.30;84.00;;;;;;5037202;28;20881;-76
2022/08/15 01:22:17;;;;;;;9.40;8.60;;;25.30;84.10;;;;;;5037663;28;20485;-75
2022/08/15 01:24:57;;;;;;;10.63;9.60;;;25.20;84.00;;;;;;5035938;28;20461;-74
2022/08/15 01:27:50;;;;;;;11.03;10.20;;;25.20;84.10;;;;;;5037527;28;20435;-74
2022/08/15 01:30:27;;;;;;;10.77;9.77;;;25.20;84.20;;;;;;5036726;28;20514;-76
2022/08/15 01:33:17;;;;;;;10.03;9.13;;;25.10;84.10;;;;;;5037156;28;20772;-74
2022/08/15 01:35:51;;;;;;;11.87;10.20;;;25.10;84.20;;;;;;5035568;28;20462;-75
2022/08/15 01:38:26;;;;;;;9.07;8.33;;;25.10;84.30;;;;;;5036805;28;20985;-75
2022/08/15 01:41:22;;;;;;;10.40;9.30;;;25.10;84.50;;;;;;5036991;28;20542;-73
2022/08/15 01:44:12;;;;;;;10.90;10.00;;;25.00;84.50;;;;;;5035511;28;20450;-75
2022/08/15 01:47:08;;;;;;;9.53;8.73;;;25.00;84.70;;;;;;5035354;28;20493;-74
2022/08/15 01:49:49;;;;;;;10.63;9.83;;;24.90;84.70;;;;;;5035270;28;20995;-75
2022/08/15 01:52:35;;;;;;;10.20;9.40;;;24.90;84.80;;;;;;5035484;28;20446;-75
2022/08/15 01:55:27;;;;;;;10.10;9.20;;;24.90;84.90;;;;;;5036034;28;20470;-74
2022/08/15 01:58:06;;;;;;;10.20;9.40;;;24.90;85.00;;;;;;5035683;28;20446;-75
2022/08/15 02:00:37;;;;;;;9.53;8.73;;;24.80;85.10;;;;;;5035375;28;20885;-74
2022/08/15 02:03:12;;;;;;;10.00;9.17;;;24.80;85.20;;;;;;5036872;28;20831;-74
2022/08/15 02:05:50;;;;;;;10.23;9.43;;;24.80;85.30;;;;;;5035221;28;20514;-74
2022/08/15 02:08:25;;;;;;;10.23;9.53;;;24.70;85.90;;;;;;5035250;28;20482;-74
2022/08/15 02:11:09;;;;;;;9.53;8.73;;;24.70;85.40;;;;;;5035081;28;20438;-75
2022/08/15 02:13:46;;;;;;;9.30;8.60;;;24.70;85.50;;;;;;5035033;28;20439;-74
2022/08/15 02:16:15;;;;;;;10.23;9.33;;;24.70;85.50;;;;;;5034790;28;20848;-74
2022/08/15 02:18:49;;;;;;;10.13;9.33;;;24.70;85.60;;;;;;5036417;28;20420;-76
2022/08/15 02:21:20;;;;;;;10.37;9.57;;;24.60;85.50;;;;;;5035468;28;20467;-74
2022/08/15 02:24:08;;;;;;;10.40;9.40;;;24.60;85.60;;;;;;5034915;28;20455;-75
2022/08/15 02:26:50;;;;;;;10.77;9.87;;;24.60;85.70;;;;;;5034480;28;20506;-74
2022/08/15 02:29:21;;;;;;;10.47;9.60;;;24.50;86.40;;;;;;5034824;28;20823;-74
2022/08/15 02:31:52;;;;;;;10.40;9.60;;;24.50;85.90;;;;;;5034733;28;20838;-74
2022/08/15 02:34:21;;;;;;;9.90;9.10;;;24.50;86.00;;;;;;5034606;28;20465;-75
2022/08/15 02:37:11;;;;;;;11.37;10.37;;;24.50;86.10;;;;;;5035403;28;20825;-74
2022/08/15 02:39:44;;;;;;;10.53;9.53;;;24.50;86.30;;;;;;5034417;28;20497;-75
2022/08/15 02:42:25;;;;;;;9.97;9.27;;;24.40;86.30;;;;;;5034328;28;20466;-74
2022/08/15 02:44:56;;;;;;;10.87;9.93;;;24.40;86.40;;;;;;5034572;28;20444;-74
2022/08/15 02:47:24;;;;;;;9.67;8.77;;;24.40;87.20;;;;;;5034459;28;20527;-75
2022/08/15 02:49:54;;;;;;;10.07;9.17;;;24.30;86.50;;;;;;5034218;28;20439;-74
2022/08/15 02:52:23;;;;;;;10.60;9.70;;;24.30;86.70;;;;;;5034089;28;20471;-74
2022/08/15 02:54:57;;;;;;;10.63;9.67;;;24.30;86.80;;;;;;5035942;28;20426;-76
2022/08/15 02:57:28;;;;;;;10.53;9.63;;;24.20;86.90;;;;;;5034076;28;20901;-75
2022/08/15 02:59:58;;;;;;;10.73;9.93;;;24.20;87.00;;;;;;5034342;28;20501;-75
2022/08/15 03:02:48;;;;;;;10.87;9.97;;;24.20;87.20;;;;;;5033919;28;20470;-75
2022/08/15 03:05:16;;;;;;;10.30;9.40;;;24.20;87.30;;;;;;5034115;28;20467;-74
2022/08/15 03:07:44;;;;;;;11.27;10.37;;;24.10;87.30;;;;;;5033839;28;20482;-74
2022/08/15 03:10:14;;;;;;;10.70;9.70;;;24.10;87.50;;;;;;5033762;28;20454;-74
2022/08/15 03:13:01;;;;;;;13.13;12.03;;;24.10;87.70;;;;;;5033940;28;20449;-73
2022/08/15 03:15:40;;;;;;;16.30;15.00;;;24.00;87.70;;;;;;5033626;28;20884;-74
2022/08/15 03:18:10;;;;;;;12.20;11.20;;;24.00;87.80;;;;;;5034590;28;20835;-74
2022/08/15 03:20:41;;;;;;;11.97;10.97;;;24.00;87.90;;;;;;5033890;28;20455;-73
2022/08/15 03:23:14;;;;;;;13.87;12.67;;;24.00;88.00;;;;;;5033685;28;20451;-74
2022/08/15 03:25:49;;;;;;;22.57;20.37;;;23.90;87.90;;;;;;5034001;28;20474;-74
2022/08/15 03:28:25;;;;;;;24.50;22.10;;;23.90;88.00;;;;;;5033904;28;20501;-73
2022/08/15 03:31:00;;;;;;;16.77;15.30;;;23.90;88.10;;;;;;5033390;28;20551;-74
2022/08/15 03:33:31;;;;;;;12.87;11.70;;;23.90;88.20;;;;;;5034922;28;20415;-74
2022/08/15 03:36:21;;;;;;;11.37;10.53;;;23.90;88.20;;;;;;5032509;28;20489;-74
2022/08/15 03:38:51;;;;;;;10.60;9.70;;;23.90;88.30;;;;;;5033165;28;20485;-73
2022/08/15 03:41:27;;;;;;;10.63;9.83;;;23.80;88.30;;;;;;5033187;28;20462;-74
2022/08/15 03:43:56;;;;;;;11.60;10.50;;;23.80;88.50;;;;;;5033248;28;20447;-74
2022/08/15 03:46:27;;;;;;;10.50;9.60;;;23.80;88.50;;;;;;5033342;28;20463;-74
2022/08/15 03:48:57;;;;;;;11.30;10.30;;;23.80;88.50;;;;;;5033016;28;20471;-75
2022/08/15 03:51:33;;;;;;;10.43;9.63;;;23.70;88.50;;;;;;5032953;28;20442;-75
2022/08/15 03:54:07;;;;;;;12.57;11.37;;;23.70;88.60;;;;;;5033538;28;20442;-73
2022/08/15 03:56:54;;;;;;;13.70;12.60;;;23.70;88.60;;;;;;5032867;28;20501;-74
2022/08/15 03:59:22;;;;;;;14.30;13.10;;;23.70;88.70;;;;;;5033077;28;20447;-74
2022/08/15 04:01:55;;;;;;;12.50;11.50;;;23.70;89.40;;;;;;5033076;28;20471;-76
2022/08/15 04:04:28;;;;;;;11.67;10.67;;;23.60;88.80;;;;;;5033141;28;20441;-74
2022/08/15 04:06:56;;;;;;;11.40;10.40;;;23.60;88.80;;;;;;5034298;28;20501;-74
2022/08/15 04:09:36;;;;;;;12.27;11.37;;;23.70;89.10;;;;;;5033001;28;20443;-74
2022/08/15 04:12:11;;;;;;;11.63;10.63;;;23.60;89.10;;;;;;5032723;28;20966;-75
2022/08/15 04:14:54;;;;;;;10.87;9.87;;;23.60;89.30;;;;;;5032676;28;20451;-74
2022/08/15 04:17:25;;;;;;;11.30;10.40;;;23.60;89.40;;;;;;5032638;28;20497;-75
2022/08/15 04:20:14;;;;;;;11.47;10.50;;;23.50;89.60;;;;;;5032542;28;20968;-74
2022/08/15 04:23:06;;;;;;;11.93;10.93;;;23.50;89.70;;;;;;5032753;28;20483;-73
2022/08/15 04:25:39;;;;;;;11.73;10.83;;;23.50;89.90;;;;;;5032378;28;20462;-75
2022/08/15 04:28:26;;;;;;;10.90;10.10;;;23.50;90.00;;;;;;5032511;28;20538;-75
2022/08/15 04:31:17;;;;;;;10.73;9.83;;;23.40;90.00;;;;;;5036581;28;20457;-75
2022/08/15 04:33:49;;;;;;;10.37;9.53;;;23.40;90.10;;;;;;5032445;28;20435;-74
2022/08/15 04:36:39;;;;;;;10.60;9.80;;;23.40;90.20;;;;;;5032519;28;20470;-75
2022/08/15 04:39:09;;;;;;;12.47;11.37;;;23.40;90.20;;;;;;5032257;28;20534;-74
2022/08/15 04:41:52;;;;;;;11.17;10.27;;;23.40;90.30;;;;;;5032530;28;20480;-74
2022/08/15 04:44:22;;;;;;;10.53;9.63;;;23.40;90.30;;;;;;5032310;28;20455;-74
2022/08/15 04:46:56;;;;;;;9.50;8.80;;;23.40;90.40;;;;;;5032291;28;20475;-74
2022/08/15 04:49:27;;;;;;;9.80;9.00;;;23.40;90.70;;;;;;5032035;28;20826;-74
2022/08/15 04:51:55;;;;;;;9.97;9.17;;;23.40;90.50;;;;;;5032487;28;20450;-75
2022/08/15 04:54:25;;;;;;;9.43;8.73;;;23.40;90.60;;;;;;5032044;28;20817;-74
2022/08/15 04:57:10;;;;;;;11.07;10.17;;;23.30;90.60;;;;;;5032138;28;20462;-74
2022/08/15 04:59:47;;;;;;;11.17;10.17;;;23.40;90.70;;;;;;5032386;28;20967;-74
2022/08/15 05:03:02;;;;;;;10.30;9.30;;;23.40;91.00;;;;;;5022688;28;20525;-74
2022/08/15 05:05:37;;;;;;;9.60;8.87;;;23.40;90.80;;;;;;5032186;28;20514;-74
2022/08/15 05:08:06;;;;;;;10.03;9.10;;;23.30;90.80;;;;;;5031905;28;20442;-75
2022/08/15 05:10:42;;;;;;;10.13;9.43;;;23.30;90.80;;;;;;5031926;28;20443;-74
2022/08/15 05:13:14;;;;;;;10.37;9.50;;;23.30;90.90;;;;;;5031997;28;20443;-75
2022/08/15 05:15:45;;;;;;;10.33;9.30;;;23.30;91.00;;;;;;5033146;28;20498;-74
2022/08/15 05:18:23;;;;;;;10.07;9.30;;;23.30;91.00;;;;;;5032138;28;20439;-75
2022/08/15 05:20:54;;;;;;;9.00;8.30;;;23.30;91.10;;;;;;5032827;28;20908;-74
2022/08/15 05:23:24;;;;;;;11.30;10.20;;;23.30;91.20;;;;;;5031601;28;20493;-74
2022/08/15 05:26:03;;;;;;;10.07;9.30;;;23.30;91.20;;;;;;5031555;28;20878;-75
2022/08/15 05:28:52;;;;;;;11.77;10.57;;;23.30;91.20;;;;;;5031872;28;20443;-74
2022/08/15 05:31:28;;;;;;;11.80;10.90;;;23.30;91.20;;;;;;5031682;28;20439;-74
2022/08/15 05:34:04;;;;;;;11.30;10.50;;;23.30;91.30;;;;;;5032354;28;20439;-74
2022/08/15 05:36:44;;;;;;;10.33;9.33;;;23.30;91.30;;;;;;5033182;28;20470;-74
2022/08/15 05:39:18;;;;;;;10.30;9.50;;;23.30;91.40;;;;;;5032432;28;20447;-74
2022/08/15 05:42:01;;;;;;;11.13;10.13;;;23.30;91.50;;;;;;5032229;28;20434;-75
2022/08/15 05:44:44;;;;;;;10.60;9.60;;;23.30;91.50;;;;;;5031769;28;20465;-73
2022/08/15 05:47:28;;;;;;;10.97;10.17;;;23.30;91.60;;;;;;5031675;28;20489;-75
2022/08/15 05:50:01;;;;;;;10.77;9.87;;;23.30;91.60;;;;;;5033195;28;20431;-74
2022/08/15 05:52:46;;;;;;;9.80;8.97;;;23.30;91.60;;;;;;5033016;28;20480;-74
2022/08/15 05:55:24;;;;;;;11.13;10.17;;;23.30;91.70;;;;;;5032196;28;20457;-75
2022/08/15 05:58:12;;;;;;;9.60;8.90;;;23.40;91.80;;;;;;5031789;28;20505;-74
2022/08/15 06:01:05;;;;;;;10.83;9.63;;;23.40;91.80;;;;;;5034008;28;20439;-74
2022/08/15 06:03:50;;;;;;;10.87;9.90;;;23.40;91.80;;;;;;5035323;28;20501;-75
2022/08/15 06:06:23;;;;;;;10.80;10.03;;;23.40;91.90;;;;;;5035762;28;20470;-74
2022/08/15 06:09:05;;;;;;;11.17;10.27;;;23.40;92.10;;;;;;5036235;28;20442;-75
2022/08/15 06:11:39;;;;;;;10.40;9.60;;;23.40;91.90;;;;;;5036507;28;20482;-74
2022/08/15 06:14:24;;;;;;;11.00;10.00;;;23.40;91.90;;;;;;5035733;28;20442;-74
2022/08/15 06:17:12;;;;;;;11.10;10.20;;;23.40;92.00;;;;;;5035005;28;20510;-74
2022/08/15 06:19:46;;;;;;;10.70;9.90;;;23.40;92.00;;;;;;5034851;28;20442;-75
2022/08/15 06:22:28;;;;;;;12.87;11.67;;;23.50;92.40;;;;;;5035706;28;20435;-75
2022/08/15 06:25:10;;;;;;;13.93;12.93;;;23.50;92.20;;;;;;5035490;28;20447;-75
2022/08/15 06:27:47;;;;;;;10.47;9.63;;;23.60;92.20;;;;;;5035021;28;20445;-75
2022/08/15 06:30:31;;;;;;;11.80;10.70;;;23.60;92.30;;;;;;5035963;28;20422;-75
2022/08/15 06:33:06;;;;;;;10.73;9.93;;;23.60;92.30;;;;;;5035068;28;20463;-74
2022/08/15 06:35:48;;;;;;;11.27;10.17;;;23.70;92.30;;;;;;5034759;28;20470;-74
2022/08/15 06:38:34;;;;;;;10.47;9.73;;;23.70;92.30;;;;;;5034471;28;20892;-75
2022/08/15 06:41:22;;;;;;;11.47;10.57;;;23.70;92.30;;;;;;5035009;28;20465;-74
2022/08/15 06:43:54;;;;;;;10.83;9.83;;;23.80;92.40;;;;;;5035362;28;20462;-75
2022/08/15 06:46:33;;;;;;;11.97;11.03;;;23.90;92.40;;;;;;5034662;28;20473;-75
2022/08/15 06:49:19;;;;;;;10.50;9.80;;;23.90;92.50;;;;;;5034538;28;20478;-75
2022/08/15 06:51:52;;;;;;;11.57;10.67;;;24.00;92.50;;;;;;5035115;28;20450;-76
2022/08/15 06:54:26;;;;;;;10.83;10.03;;;24.00;92.40;;;;;;5034122;28;20542;-74
2022/08/15 06:57:18;;;;;;;11.30;10.40;;;24.10;92.50;;;;;;5034187;28;20525;-75
2022/08/15 06:59:59;;;;;;;11.93;11.00;;;24.10;92.50;;;;;;5034123;28;20443;-74
2022/08/15 07:02:48;;;;;;;14.13;10.47;;;24.20;92.50;;;;;;5034324;28;20454;-75
2022/08/15 07:05:22;;;;;;;11.10;10.10;;;24.30;92.50;;;;;;5033995;28;20439;-75
2022/08/15 07:08:04;;;;;;;10.67;9.87;;;24.40;92.50;;;;;;5034075;28;20449;-75
2022/08/15 07:10:44;;;;;;;11.13;10.23;;;24.50;92.60;;;;;;5033754;28;20457;-76
2022/08/15 07:13:21;;;;;;;10.47;9.67;;;24.50;92.60;;;;;;5034471;28;20443;-75
2022/08/15 07:15:55;;;;;;;11.63;10.63;;;24.70;92.60;;;;;;5033893;28;20513;-74
2022/08/15 07:18:34;;;;;;;11.80;10.80;;;24.90;92.50;;;;;;5033813;28;20500;-75
2022/08/15 07:21:12;;;;;;;11.83;10.70;;;25.00;92.30;;;;;;5033735;28;20816;-75
2022/08/15 07:24:02;;;;;;;12.03;11.03;;;25.10;92.30;;;;;;5033812;28;20505;-75
2022/08/15 07:26:55;;;;;;;12.20;10.90;;;25.10;92.30;;;;;;5033589;28;20470;-75
2022/08/15 07:29:33;;;;;;;10.80;10.10;;;25.20;92.30;;;;;;5033585;28;20458;-75
2022/08/15 07:32:12;;;;;;;12.20;11.40;;;25.20;92.30;;;;;;5033493;28;20451;-75
2022/08/15 07:35:05;;;;;;;12.00;11.10;;;25.30;92.60;;;;;;5038562;28;20847;-75
2022/08/15 07:37:42;;;;;;;12.10;11.07;;;25.30;92.30;;;;;;5033715;28;20824;-75
2022/08/15 07:40:20;;;;;;;11.53;10.60;;;25.30;92.30;;;;;;5033434;28;20442;-74
2022/08/15 07:42:58;;;;;;;12.47;11.20;;;25.30;92.20;;;;;;5033205;28;20874;-75
2022/08/15 07:45:34;;;;;;;15.13;13.90;;;25.40;92.30;;;;;;5033177;28;20896;-74
2022/08/15 07:48:26;;;;;;;12.27;11.27;;;25.40;92.30;;;;;;5033775;28;20452;-74
2022/08/15 07:51:09;;;;;;;12.37;11.30;;;25.40;92.20;;;;;;5034436;28;20494;-74
2022/08/15 07:53:53;;;;;;;11.47;10.57;;;25.50;92.20;;;;;;5033506;28;20451;-74
2022/08/15 07:56:24;;;;;;;11.67;10.50;;;25.50;92.20;;;;;;5033274;28;21006;-75
2022/08/15 07:59:20;;;;;;;12.23;11.23;;;25.50;92.20;;;;;;5034505;28;20435;-74
2022/08/15 08:02:17;;;;;;;12.00;11.10;;;25.50;92.20;;;;;;5033130;28;20883;-74
2022/08/15 08:05:07;;;;;;;13.20;12.00;;;25.50;92.20;;;;;;5032848;28;20462;-75
2022/08/15 08:07:39;;;;;;;13.10;12.00;;;25.60;92.20;;;;;;5032837;28;20948;-74
2022/08/15 08:10:37;;;;;;;14.23;10.50;;;25.60;92.20;;;;;;5032902;28;20538;-74
2022/08/15 08:13:29;;;;;;;11.80;10.87;;;25.70;92.20;;;;;;5032792;28;20451;-76
2022/08/15 08:16:13;;;;;;;12.20;11.20;;;25.70;92.20;;;;;;5032640;28;20550;-75
2022/08/15 08:19:12;;;;;;;11.83;10.80;;;25.70;92.20;;;;;;5032972;28;20820;-75
2022/08/15 08:21:50;;;;;;;11.37;10.40;;;25.80;92.20;;;;;;5032626;28;20446;-75
2022/08/15 08:24:28;;;;;;;11.67;10.67;;;25.80;92.20;;;;;;5031882;28;20478;-75
2022/08/15 08:27:06;;;;;;;12.00;10.90;;;25.90;92.20;;;;;;5032706;28;20960;-75
2022/08/15 08:29:47;;;;;;;12.07;11.07;;;25.90;92.10;;;;;;5034007;28;20430;-75
2022/08/15 08:32:29;;;;;;;12.53;11.53;;;26.00;92.10;;;;;;5033349;28;20825;-75
2022/08/15 08:35:10;;;;;;;13.47;11.20;;;26.20;92.10;;;;;;5034025;28;20473;-76
2022/08/15 08:37:44;;;;;;;12.97;11.70;;;26.40;92.00;;;;;;5034474;28;20879;-74
2022/08/15 08:43:27;;;;;;;13.30;11.93;;;26.80;92.00;;;;;;5032330;28;20457;-75
2022/08/15 08:46:06;;;;;;;12.90;11.77;;;27.00;91.80;;;;;;5034283;28;20501;-75
2022/08/15 08:48:42;;;;;;;13.53;12.43;;;27.20;91.80;;;;;;5032913;28;20462;-75
2022/08/15 08:51:21;;;;;;;12.60;11.50;;;27.30;91.70;;;;;;5033105;28;20500;-75
2022/08/15 08:53:56;;;;;;;12.27;11.27;;;27.40;91.60;;;;;;5034148;28;20415;-75
2022/08/15 08:56:30;;;;;;;14.93;11.70;;;27.50;91.50;;;;;;5033877;28;20446;-75
2022/08/15 08:59:09;;;;;;;12.17;11.27;;;27.50;91.40;;;;;;5033775;28;20523;-75
2022/08/15 09:01:39;;;;;;;12.80;11.47;;;27.60;91.30;;;;;;5032306;28;20431;-76
2022/08/15 09:04:12;;;;;;;12.03;11.17;;;27.60;91.20;;;;;;5033938;28;20463;-75
2022/08/15 09:06:50;;;;;;;13.27;12.07;;;27.70;91.10;;;;;;5033374;28;20903;-76
2022/08/15 09:09:27;;;;;;;14.27;12.30;;;27.70;91.00;;;;;;5033973;28;20478;-75
2022/08/15 09:12:01;;;;;;;12.30;11.30;;;27.80;90.90;;;;;;5034503;28;20434;-76
2022/08/15 09:14:34;;;;;;;12.83;11.40;;;27.90;90.70;;;;;;5033920;28;20461;-76
2022/08/15 09:17:24;;;;;;;12.10;10.97;;;28.00;90.70;;;;;;5032201;28;20473;-75
2022/08/15 09:20:05;;;;;;;12.97;12.07;;;28.10;90.70;;;;;;5033539;28;20785;-75
2022/08/15 09:22:40;;;;;;;12.83;11.63;;;28.20;90.60;;;;;;5033996;28;20470;-74
2022/08/15 09:25:09;;;;;;;14.07;11.50;;;28.30;90.50;;;;;;5032931;28;20475;-75
2022/08/15 09:27:47;;;;;;;12.20;11.20;;;28.40;90.50;;;;;;5032078;28;20972;-74
2022/08/15 09:30:27;;;;;;;12.13;11.00;;;28.40;90.60;;;;;;5033876;28;20423;-75
2022/08/15 09:33:49;;;;;;;13.10;11.90;;;28.50;90.30;;;;;;5033270;28;20424;-75
2022/08/15 09:36:41;;;;;;;12.30;11.10;;;28.70;90.10;;;;;;5036010;28;20537;-75
2022/08/15 09:39:28;;;;;;;12.70;11.70;;;28.90;90.30;;;;;;5037288;28;20776;-75
2022/08/15 09:42:21;;;;;;;12.40;11.50;;;29.00;89.30;;;;;;5037309;28;20429;-76
2022/08/15 09:45:24;;;;;;;12.83;11.70;;;29.20;88.90;;;;;;5037095;28;20470;-75
2022/08/15 09:48:38;;;;;;;12.40;11.40;;;29.30;88.60;;;;;;5035684;28;20435;-75
2022/08/15 09:51:23;;;;;;;11.90;11.00;;;29.50;87.70;;;;;;5035518;28;20439;-76
2022/08/15 09:54:05;;;;;;;13.00;11.90;;;29.60;87.40;;;;;;5037008;28;20427;-76
2022/08/15 09:57:21;;;;;;;12.13;11.13;;;29.70;86.80;;;;;;5036853;28;20462;-75
2022/08/15 09:59:56;;;;;;;12.60;11.70;;;29.70;86.30;;;;;;5036937;28;20419;-75
2022/08/15 10:02:27;;;;;;;11.73;10.67;;;29.80;86.20;;;;;;5036591;28;20932;-75
2022/08/15 10:05:23;;;;;;;12.47;11.50;;;29.90;85.90;;;;;;5036296;28;20454;-76
2022/08/15 10:07:54;;;;;;;12.97;12.00;;;30.00;85.50;;;;;;5036721;28;20415;-76
2022/08/15 10:10:46;;;;;;;16.23;14.97;;;30.10;85.30;;;;;;5035166;28;20454;-75
2022/08/15 10:13:39;;;;;;;12.07;11.20;;;30.10;85.20;;;;;;5037054;28;20465;-75
2022/08/15 10:16:46;;;;;;;12.93;11.80;;;30.10;84.80;;;;;;5035174;28;20557;-75
2022/08/15 10:19:31;;;;;;;12.50;11.40;;;30.10;84.30;;;;;;5036447;28;20508;-75
2022/08/15 10:22:31;;;;;;;11.67;10.87;;;30.20;84.70;;;;;;5035106;28;20438;-76
2022/08/15 10:25:17;;;;;;;12.07;11.17;;;30.20;83.80;;;;;;5036150;28;20481;-74
2022/08/15 10:27:56;;;;;;;12.30;11.40;;;30.20;83.60;;;;;;5036051;28;20426;-75
2022/08/15 10:30:30;;;;;;;12.20;11.30;;;30.30;83.30;;;;;;5036660;28;20964;-75
2022/08/15 10:33:29;;;;;;;12.33;11.33;;;30.40;83.30;;;;;;5034729;28;20521;-76
2022/08/15 10:36:18;;;;;;;13.53;12.37;;;30.50;83.40;;;;;;5034915;28;20471;-75
2022/08/15 10:39:11;;;;;;;12.00;11.00;;;30.70;82.90;;;;;;5037647;28;20435;-75
2022/08/15 10:42:00;;;;;;;12.63;11.47;;;30.70;82.60;;;;;;5038034;28;20470;-75
2022/08/15 10:44:56;;;;;;;12.73;11.50;;;30.70;82.50;;;;;;5037164;28;20570;-76
2022/08/15 10:47:41;;;;;;;13.00;11.73;;;30.70;82.30;;;;;;5034355;28;20944;-75
2022/08/15 10:50:28;;;;;;;12.47;11.47;;;30.70;82.00;;;;;;5034616;28;20873;-75
2022/08/15 10:53:09;;;;;;;13.13;12.10;;;30.80;82.10;;;;;;5036075;28;20459;-75
2022/08/15 10:55:40;;;;;;;14.40;12.97;;;30.90;82.40;;;;;;5035378;28;20458;-75
2022/08/15 10:58:32;;;;;;;12.30;11.20;;;31.00;82.00;;;;;;5034566;28;20455;-75
2022/08/15 11:01:07;;;;;;;12.03;11.03;;;31.10;81.60;;;;;;5035786;28;20426;-76
2022/08/15 11:03:44;;;;;;;12.17;11.17;;;31.20;81.20;;;;;;5034228;28;20924;-76
2022/08/15 11:06:38;;;;;;;12.13;11.23;;;31.30;80.50;;;;;;5035491;28;20478;-75
2022/08/15 11:09:17;;;;;;;11.70;10.80;;;31.40;80.40;;;;;;5035870;28;20489;-75
2022/08/15 11:11:55;;;;;;;12.50;11.50;;;31.40;80.20;;;;;;5035647;28;20491;-75
2022/08/15 11:14:30;;;;;;;13.53;11.50;;;31.40;79.00;;;;;;5035771;28;20415;-75
2022/08/15 11:17:01;;;;;;;11.97;11.17;;;31.50;78.40;;;;;;5035437;28;20466;-75
2022/08/15 11:19:37;;;;;;;12.50;11.57;;;31.60;78.10;;;;;;5035435;28;20506;-76
2022/08/15 11:22:33;;;;;;;12.10;11.23;;;31.60;77.20;;;;;;5033872;28;20443;-75
2022/08/15 11:25:06;;;;;;;11.77;10.97;;;31.60;77.00;;;;;;5033460;28;20515;-76
2022/08/15 11:27:37;;;;;;;12.27;11.23;;;31.70;76.60;;;;;;5033673;28;20956;-75
2022/08/15 11:30:08;;;;;;;12.43;11.53;;;31.70;76.10;;;;;;5034798;28;20539;-75
2022/08/15 11:32:52;;;;;;;11.90;10.90;;;31.80;75.70;;;;;;5033875;28;20781;-76
2022/08/15 11:35:28;;;;;;;11.80;11.00;;;31.90;75.60;;;;;;5034736;28;20512;-75
2022/08/15 11:38:00;;;;;;;12.30;11.20;;;31.90;75.90;;;;;;5035236;28;20892;-75
2022/08/15 11:40:52;;;;;;;12.80;11.57;;;31.90;75.00;;;;;;5035257;28;20438;-75
2022/08/15 11:43:22;;;;;;;12.37;11.33;;;31.90;74.70;;;;;;5033823;28;20792;-75
2022/08/15 11:45:53;;;;;;;12.67;11.67;;;31.90;74.30;;;;;;5034373;28;21022;-74
2022/08/15 11:48:25;;;;;;;11.23;10.23;;;31.90;74.40;;;;;;5034841;28;20415;-75
2022/08/15 11:51:10;;;;;;;11.73;10.93;;;31.90;74.30;;;;;;5035251;28;20783;-75
2022/08/15 11:54:02;;;;;;;11.90;11.00;;;32.00;74.10;;;;;;5033276;28;20435;-75
2022/08/15 11:56:45;;;;;;;11.63;10.67;;;32.00;74.10;;;;;;5034684;28;20467;-75
2022/08/15 11:59:27;;;;;;;11.50;10.60;;;32.10;74.20;;;;;;5034294;28;20454;-76
2022/08/15 12:02:28;;;;;;;11.80;10.90;;;32.20;74.00;;;;;;5034610;28;20467;-75
2022/08/15 12:05:12;;;;;;;10.93;10.23;;;32.30;74.00;;;;;;5034451;28;20431;-75
2022/08/15 12:08:05;;;;;;;10.87;10.07;;;32.30;73.80;;;;;;5034543;28;20451;-75
2022/08/15 12:11:02;;;;;;;11.50;10.70;;;32.40;74.10;;;;;;5033060;28;20451;-74
2022/08/15 12:13:36;;;;;;;11.17;10.27;;;32.50;73.20;;;;;;5034515;28;20426;-76
2022/08/15 12:16:24;;;;;;;11.83;10.83;;;32.50;72.50;;;;;;5034392;28;21032;-75
2022/08/15 12:18:57;;;;;;;10.97;9.90;;;32.60;72.30;;;;;;5034388;28;20439;-76
2022/08/15 12:21:27;;;;;;;10.90;10.20;;;32.60;72.20;;;;;;5034446;28;20443;-75
2022/08/15 12:24:02;;;;;;;10.13;9.43;;;32.70;72.10;;;;;;5034373;28;20931;-75
2022/08/15 12:26:32;;;;;;;10.17;9.37;;;32.70;71.70;;;;;;5034066;28;20477;-76
2022/08/15 12:29:18;;;;;;;10.33;9.53;;;32.80;71.30;;;;;;5034380;28;20419;-75
2022/08/15 12:31:49;;;;;;;9.33;8.53;;;32.80;71.10;;;;;;5034287;28;20415;-75
2022/08/15 12:34:19;;;;;;;9.97;9.27;;;32.80;70.60;;;;;;5032494;28;20454;-75
2022/08/15 12:37:00;;;;;;;11.20;10.30;;;32.90;70.40;;;;;;5033825;28;20465;-76
2022/08/15 12:39:36;;;;;;;9.90;9.10;;;32.90;70.30;;;;;;5034073;28;20418;-75
2022/08/15 12:42:10;;;;;;;9.80;9.00;;;32.90;69.90;;;;;;5033971;28;20422;-76
2022/08/15 12:45:01;;;;;;;9.77;9.07;;;33.00;69.90;;;;;;5034080;28;20482;-75
2022/08/15 12:47:32;;;;;;;9.77;9.07;;;33.00;69.20;;;;;;5034069;28;20455;-75
2022/08/15 12:50:02;;;;;;;9.77;9.07;;;33.00;69.20;;;;;;5033678;28;20454;-75
2022/08/15 12:52:35;;;;;;;9.93;9.10;;;33.00;69.20;;;;;;5032383;28;20435;-76
2022/08/15 12:55:05;;;;;;;9.00;8.30;;;33.00;69.00;;;;;;5033930;28;20799;-75
2022/08/15 12:57:38;;;;;;;9.53;8.67;;;33.00;69.00;;;;;;5033593;28;20424;-75
2022/08/15 13:00:22;;;;;;;9.93;9.23;;;33.10;68.80;;;;;;5033930;28;20415;-74
2022/08/15 13:03:15;;;;;;;10.20;9.40;;;33.10;68.80;;;;;;5033775;28;20820;-75
2022/08/15 13:05:50;;;;;;;9.17;8.57;;;33.10;68.60;;;;;;5034379;28;20842;-75
2022/08/15 13:08:38;;;;;;;9.70;8.90;;;33.00;68.30;;;;;;5033827;28;20435;-74
2022/08/15 13:11:10;;;;;;;10.30;9.60;;;33.00;68.20;;;;;;5037972;28;20545;-75
2022/08/15 13:13:44;;;;;;;9.27;8.57;;;33.00;67.80;;;;;;5036352;28;20430;-75
2022/08/15 13:16:18;;;;;;;9.53;8.73;;;32.90;67.30;;;;;;5037662;28;20455;-75
2022/08/15 13:19:09;;;;;;;10.23;9.40;;;32.80;67.00;;;;;;5036162;28;20426;-76
2022/08/15 13:24:34;;;;;;;9.90;9.10;;;32.70;67.00;;;;;;5037581;28;21023;-75
2022/08/15 13:27:07;;;;;;;8.67;7.87;;;32.60;67.20;;;;;;5038141;28;20823;-75
2022/08/15 13:29:39;;;;;;;10.60;9.27;;;32.60;66.80;;;;;;5037868;28;20498;-75
2022/08/15 13:32:23;;;;;;;9.80;8.80;;;32.50;67.30;;;;;;5037380;28;20522;-76
2022/08/15 13:34:52;;;;;;;13.53;10.30;;;32.30;68.00;;;;;;5037186;28;20505;-75
2022/08/15 13:37:23;;;;;;;13.57;8.73;;;32.10;68.70;;;;;;5037146;28;20466;-75
2022/08/15 13:40:15;;;;;;;9.27;8.47;;;32.00;69.20;;;;;;5035783;28;20920;-75
2022/08/15 13:42:48;;;;;;;10.03;9.00;;;31.80;69.60;;;;;;5037233;28;20427;-74
2022/08/15 13:45:17;;;;;;;8.70;7.90;;;31.60;70.00;;;;;;5036901;28;20808;-75